Sayner, WI (54560)

12:32 AM CST on February 14, 2016 (GMT -0600)
PlumLake- East Shore | | Change Station
CLOSE
Current Station
Personal Weather Station
Location: Sayner, WI
Elevation: 1670 ft
Nearby Weather Stations

Elev 1670 ft 46.00 °N, 89.53 °W | Updated 16 seconds ago

Mostly Cloudy
Mostly Cloudy
-15.0 °F
Feels Like -15 °F
N
0.0
Wind Variable Wind from SSE
Gusts 0.0 mph

Today
High -- | Low -- °F
--% Chance of Precip.
Yesterday
High -- | Low -- °F
Precip. -- in
Pressure 30.30 in
Visibility 10.0 miles
Clouds Clear
Windchill -15 °F
Dew Point -30 °F
Humidity 46%
Rainfall 0.00 in
Snow Depth Not available.
7:02 AM 5:22 PM
Waxing Crescent, 38% visible
METAR KARV 140615Z AUTO 00000KT 10SM CLR M24/M27 A3030 RMK AO2 T12401273
Pressure 30.30 in
Visibility 10.0 miles
Clouds Clear
Windchill -15 °F
Dew Point -30 °F
Humidity 46%
Rainfall 0.00 in
Snow Depth Not available.
7:02 AM 5:22 PM
Waxing Crescent, 38% visible
METAR KARV 140615Z AUTO 00000KT 10SM CLR M24/M27 A3030 RMK AO2 T12401273

10-Day Weather Forecast

Almanac

Astronomy

Feb. 14, 2016 Rise Set
Actual Time
Civil Twilight
Nautical Twilight
Astronomical Twilight
Moon
Length of Visible Light
Length of Day
Tomorrow will be .
, % of the Moon is Illuminated

Today's Extremes

State Highs State Lows

Community

WunderPhotos

Upload Photos

1,892,757 photos uploaded!

WunderBlog® & News

Nearby

Air Quality

  Air Quality AQ Index Pollutant
Not available.

Snow Depth

Station Depth Elevation

Earthquake Activity

City Distance Mag. Time & Date
Minimum magnitude displayed is 2.5.

Coastal Water Temperatures

Place Temperature

Stations

Nearby Weather Stations

Station Location Temp. Windchill Dew Point Humidity Wind Precip. Elev Updated Type
                   

Watches & Warnings

There are currently no watches in effect.